createdAt,value
2022-11-22T00:01:19.627Z,7.00
2022-11-22T00:03:47.732Z,7.00
2022-11-22T00:06:15.989Z,7.00
2022-11-22T00:08:45.568Z,7.00
2022-11-22T00:11:13.730Z,7.00
2022-11-22T00:13:41.829Z,7.00
2022-11-22T00:16:10.185Z,7.00
2022-11-22T00:18:38.304Z,6.90
2022-11-22T00:21:07.993Z,6.90
2022-11-22T00:23:36.570Z,6.80
2022-11-22T00:26:07.038Z,6.80
2022-11-22T00:28:35.171Z,6.80
2022-11-22T00:31:03.319Z,6.80
2022-11-22T00:33:31.575Z,6.80
2022-11-22T00:35:59.711Z,6.80
2022-11-22T00:38:27.871Z,6.80
2022-11-22T00:40:56.023Z,6.80
2022-11-22T00:43:25.579Z,6.80
2022-11-22T00:45:53.895Z,6.70
2022-11-22T00:48:22.045Z,6.70
2022-11-22T00:50:51.142Z,6.70
2022-11-22T00:53:19.336Z,6.60
2022-11-22T00:55:47.486Z,6.60
2022-11-22T00:58:16.071Z,6.70
2022-11-22T01:00:45.783Z,6.70
2022-11-22T01:03:15.402Z,6.60
2022-11-22T01:05:43.591Z,6.70
2022-11-22T01:08:11.778Z,6.70
2022-11-22T01:10:40.028Z,6.70
2022-11-22T01:13:08.147Z,6.70
2022-11-22T01:15:37.538Z,6.70
2022-11-22T01:18:07.220Z,6.70
2022-11-22T01:20:35.404Z,6.70
2022-11-22T01:23:03.481Z,6.70
2022-11-22T01:25:31.664Z,6.60
2022-11-22T01:27:59.828Z,6.60
2022-11-22T01:30:27.966Z,6.60
2022-11-22T01:32:56.091Z,6.60
2022-11-22T01:35:25.564Z,6.70
2022-11-22T01:37:53.771Z,6.70
2022-11-22T01:40:21.931Z,6.70
2022-11-22T01:42:53.866Z,6.70
2022-11-22T01:45:46.908Z,6.80
2022-11-22T01:48:34.857Z,6.80
2022-11-22T01:51:10.820Z,6.90
2022-11-22T01:53:41.388Z,7.00
2022-11-22T01:56:14.559Z,7.00
2022-11-22T01:58:45.298Z,7.10
2022-11-22T02:01:13.563Z,7.10
2022-11-22T02:03:45.871Z,7.20
2022-11-22T02:06:15.759Z,7.20
2022-11-22T02:08:52.983Z,7.20
2022-11-22T02:11:22.767Z,7.30
2022-11-22T02:13:52.890Z,7.30
2022-11-22T02:16:21.504Z,7.30
2022-11-22T02:18:49.649Z,7.30
2022-11-22T02:21:19.103Z,7.40
2022-11-22T02:23:57.644Z,7.40
2022-11-22T02:26:30.421Z,7.40
2022-11-22T02:29:05.178Z,7.50
2022-11-22T02:31:40.836Z,7.50
2022-11-22T02:34:09.691Z,7.50
2022-11-22T02:36:44.167Z,7.50
2022-11-22T02:39:16.229Z,7.50
2022-11-22T02:41:46.053Z,7.50
2022-11-22T02:44:15.093Z,7.50
2022-11-22T02:46:51.197Z,7.50
2022-11-22T02:49:20.986Z,7.50
2022-11-22T02:51:51.316Z,7.50
2022-11-22T02:54:20.512Z,7.50
2022-11-22T02:56:50.215Z,7.60
2022-11-22T02:59:18.349Z,7.60
2022-11-22T03:01:48.596Z,7.60
2022-11-22T03:04:25.476Z,7.60
2022-11-22T03:06:55.889Z,7.50
2022-11-22T03:09:24.701Z,7.50
2022-11-22T03:11:55.144Z,7.50
2022-11-22T03:14:23.475Z,7.50
2022-11-22T03:16:51.599Z,7.50
2022-11-22T03:19:20.104Z,7.50
2022-11-22T03:21:48.542Z,7.50
2022-11-22T03:24:16.655Z,7.50
2022-11-22T03:26:49.223Z,7.40
2022-11-22T03:29:19.575Z,7.40
2022-11-22T03:31:47.742Z,7.50
2022-11-22T03:34:16.530Z,7.40
2022-11-22T03:36:44.854Z,7.40
2022-11-22T03:39:13.088Z,7.40
2022-11-22T03:41:41.230Z,7.30
2022-11-22T03:44:09.604Z,7.30
2022-11-22T03:46:39.064Z,7.30
2022-11-22T03:49:07.229Z,7.20
2022-11-22T03:51:35.346Z,7.20
2022-11-22T03:54:03.425Z,7.20
2022-11-22T03:56:31.560Z,7.20
2022-11-22T03:58:59.803Z,7.20
2022-11-22T04:01:28.024Z,7.20
2022-11-22T04:03:57.990Z,7.30
2022-11-22T04:06:26.153Z,7.30
2022-11-22T04:08:54.331Z,7.30
2022-11-22T04:11:22.612Z,7.30
2022-11-22T04:14:08.527Z,7.30
2022-11-22T04:16:36.610Z,7.30
2022-11-22T04:19:06.098Z,7.30
2022-11-22T04:21:36.404Z,7.30
2022-11-22T04:24:24.817Z,7.20
2022-11-22T04:26:53.509Z,7.20
2022-11-22T04:29:22.370Z,7.10
2022-11-22T04:32:09.484Z,7.10
2022-11-22T04:34:39.147Z,7.00
2022-11-22T04:37:07.636Z,7.00
2022-11-22T04:39:35.832Z,6.90
2022-11-22T04:42:21.399Z,6.90
2022-11-22T04:44:49.548Z,6.80
2022-11-22T04:47:38.017Z,6.80
2022-11-22T04:50:23.970Z,6.70
2022-11-22T04:52:55.175Z,6.70
2022-11-22T04:55:23.747Z,6.70
2022-11-22T04:57:57.520Z,6.60
2022-11-22T05:00:28.541Z,6.60
2022-11-22T05:02:57.335Z,6.50
2022-11-22T05:05:27.762Z,6.50
2022-11-22T05:07:56.190Z,6.40
2022-11-22T05:10:26.712Z,6.30
2022-11-22T05:12:56.114Z,6.30
2022-11-22T05:15:24.469Z,6.20
2022-11-22T05:17:52.651Z,6.10
2022-11-22T05:20:20.820Z,6.10
2022-11-22T05:23:07.846Z,6.00
2022-11-22T05:25:36.095Z,6.00
2022-11-22T05:28:04.549Z,5.90
2022-11-22T05:30:32.667Z,5.90
2022-11-22T05:33:00.832Z,5.80
2022-11-22T05:35:29.104Z,5.80
2022-11-22T05:37:59.254Z,5.70
2022-11-22T05:40:28.039Z,5.60
2022-11-22T05:42:56.191Z,5.60
2022-11-22T05:45:24.326Z,5.60
2022-11-22T05:47:52.446Z,5.50
2022-11-22T05:50:20.701Z,5.50
2022-11-22T05:52:55.576Z,5.50
2022-11-22T05:55:25.047Z,5.40
2022-11-22T05:57:53.228Z,5.40
2022-11-22T06:00:21.863Z,5.30
2022-11-22T06:02:49.986Z,5.30
2022-11-22T06:05:18.183Z,5.30
2022-11-22T06:07:47.280Z,5.30
2022-11-22T06:10:15.640Z,5.20
2022-11-22T06:12:45.136Z,5.20
2022-11-22T06:15:13.324Z,5.10
2022-11-22T06:17:41.419Z,5.00
2022-11-22T06:20:11.360Z,5.10
2022-11-22T06:22:39.627Z,5.10
2022-11-22T06:25:09.514Z,5.20
2022-11-22T06:27:37.978Z,5.20
2022-11-22T06:30:09.720Z,5.30
2022-11-22T06:32:37.819Z,5.20
2022-11-22T06:35:07.103Z,5.20
2022-11-22T06:37:35.260Z,5.20
2022-11-22T06:40:03.703Z,5.30
2022-11-22T06:42:31.835Z,5.30
2022-11-22T06:44:59.968Z,5.30
2022-11-22T06:47:29.497Z,5.20
2022-11-22T06:49:57.782Z,5.20
2022-11-22T06:52:26.609Z,5.20
2022-11-22T06:54:54.701Z,5.10
2022-11-22T06:57:22.818Z,5.10
2022-11-22T06:59:50.975Z,5.10
2022-11-22T07:02:19.131Z,5.10
2022-11-22T07:05:09.824Z,5.20
2022-11-22T07:07:36.955Z,5.10
2022-11-22T07:10:05.964Z,5.20
2022-11-22T07:12:34.100Z,5.20
2022-11-22T07:15:02.276Z,5.20
2022-11-22T07:17:30.408Z,5.30
2022-11-22T07:19:59.926Z,5.30
2022-11-22T07:22:28.601Z,5.40
2022-11-22T07:24:56.800Z,5.40
2022-11-22T07:27:24.992Z,5.40
2022-11-22T07:29:53.124Z,5.40
2022-11-22T07:32:21.242Z,5.40
2022-11-22T07:34:49.460Z,5.50
2022-11-22T07:37:18.900Z,5.60
2022-11-22T07:39:46.998Z,5.60
2022-11-22T07:42:15.183Z,5.60
2022-11-22T07:44:44.927Z,5.60
2022-11-22T07:47:13.919Z,5.60
2022-11-22T07:49:44.888Z,5.60
2022-11-22T07:52:13.025Z,5.70
2022-11-22T07:54:42.530Z,5.70
2022-11-22T07:57:10.684Z,5.70
2022-11-22T07:59:38.827Z,5.70
2022-11-22T08:02:07.216Z,5.80
2022-11-22T08:04:35.369Z,5.80
2022-11-22T08:07:03.615Z,5.80
2022-11-22T08:09:32.079Z,5.90
2022-11-22T08:12:01.887Z,5.90
2022-11-22T08:14:30.268Z,6.00
2022-11-22T08:16:59.501Z,6.10
2022-11-22T08:19:28.205Z,6.20
2022-11-22T08:21:58.659Z,6.20
2022-11-22T08:24:27.003Z,6.20
2022-11-22T08:26:55.259Z,6.30
2022-11-22T08:29:24.776Z,6.30
2022-11-22T08:31:53.024Z,6.40
2022-11-22T08:34:21.293Z,6.40
2022-11-22T08:36:49.460Z,6.50
2022-11-22T08:39:17.627Z,6.50
2022-11-22T08:41:45.809Z,6.60
2022-11-22T08:44:14.049Z,6.70
2022-11-22T08:46:43.562Z,6.70
2022-11-22T08:49:12.206Z,6.80
2022-11-22T08:51:44.818Z,6.90
2022-11-22T08:54:13.233Z,7.00
2022-11-22T08:56:41.451Z,7.00
2022-11-22T08:59:09.786Z,7.10
2022-11-22T09:01:38.009Z,7.20
2022-11-22T09:04:07.705Z,7.30
2022-11-22T09:09:43.382Z,7.40
2022-11-22T09:12:11.820Z,7.50
2022-11-22T09:14:40.648Z,7.60
2022-11-22T09:17:12.060Z,7.60
2022-11-22T09:19:45.670Z,7.70
2022-11-22T09:22:13.802Z,7.80
2022-11-22T09:24:41.935Z,7.80
2022-11-22T09:27:10.054Z,7.90
2022-11-22T09:29:38.252Z,7.90
2022-11-22T09:32:10.315Z,7.90
2022-11-22T09:34:38.440Z,8.10
2022-11-22T09:37:07.911Z,8.20
2022-11-22T09:39:36.109Z,8.20
2022-11-22T09:42:44.401Z,8.20
2022-11-22T09:45:33.383Z,8.30
2022-11-22T09:48:15.406Z,8.30
2022-11-22T09:50:54.288Z,8.40
2022-11-22T09:53:30.614Z,8.40
2022-11-22T09:56:02.162Z,8.50
2022-11-22T09:58:34.660Z,8.50
2022-11-22T10:01:10.071Z,8.60
2022-11-22T10:03:47.679Z,8.60
2022-11-22T10:06:23.214Z,8.60
2022-11-22T10:09:07.671Z,8.70
2022-11-22T10:11:43.935Z,8.80
2022-11-22T10:14:29.116Z,8.80
2022-11-22T10:17:03.468Z,8.80
2022-11-22T10:19:39.176Z,8.80
2022-11-22T10:22:12.775Z,8.90
2022-11-22T10:24:42.946Z,9.00
2022-11-22T10:27:14.999Z,9.10
2022-11-22T10:29:51.884Z,9.10
2022-11-22T10:32:26.869Z,9.10
2022-11-22T10:35:24.948Z,9.10
2022-11-22T10:38:05.504Z,9.10
2022-11-22T10:40:45.688Z,9.10
2022-11-22T10:43:31.515Z,9.00
2022-11-22T10:46:09.747Z,9.00
2022-11-22T10:48:45.687Z,9.00
2022-11-22T10:51:23.710Z,9.00
2022-11-22T10:54:03.893Z,8.90
2022-11-22T10:56:40.089Z,8.80
2022-11-22T10:59:42.041Z,8.90
2022-11-22T11:02:32.275Z,9.00
2022-11-22T11:05:02.086Z,9.00
2022-11-22T11:07:30.565Z,9.00
2022-11-22T11:10:14.692Z,9.20
2022-11-22T11:12:54.317Z,9.20
2022-11-22T11:15:31.159Z,9.30
2022-11-22T11:18:03.217Z,9.30
2022-11-22T11:20:38.901Z,9.40
2022-11-22T11:23:14.711Z,9.40
2022-11-22T11:25:45.624Z,9.40
2022-11-22T11:28:20.727Z,9.40
2022-11-22T11:30:51.385Z,9.40
2022-11-22T11:33:25.887Z,9.20
2022-11-22T11:35:58.131Z,9.30
2022-11-22T11:38:33.678Z,9.40
2022-11-22T11:41:22.749Z,9.60
2022-11-22T11:43:53.601Z,9.60
2022-11-22T11:46:23.805Z,9.80
2022-11-22T11:48:53.508Z,9.90
2022-11-22T11:51:33.044Z,10.00
2022-11-22T11:54:04.918Z,10.10
2022-11-22T11:56:48.338Z,10.20
2022-11-22T11:59:20.787Z,10.30
2022-11-22T12:01:59.932Z,10.30
2022-11-22T12:04:32.225Z,10.20
2022-11-22T12:07:05.219Z,10.10
2022-11-22T12:09:37.096Z,10.10
2022-11-22T12:12:20.098Z,10.00
2022-11-22T12:15:15.944Z,10.00
2022-11-22T12:17:51.540Z,10.00
2022-11-22T12:20:26.601Z,10.20
2022-11-22T12:23:10.664Z,10.30
2022-11-22T12:25:41.224Z,10.50
2022-11-22T12:28:21.915Z,10.50
2022-11-22T12:30:57.498Z,10.70
2022-11-22T12:33:30.745Z,10.70
2022-11-22T12:35:59.511Z,10.60
2022-11-22T12:38:33.899Z,10.60
2022-11-22T12:41:06.815Z,10.70
2022-11-22T12:43:40.271Z,10.60
2022-11-22T12:46:14.219Z,10.60
2022-11-22T12:48:48.670Z,10.50
2022-11-22T12:51:27.200Z,10.40
2022-11-22T12:54:00.597Z,10.50
2022-11-22T12:56:34.201Z,10.50
2022-11-22T12:59:09.957Z,10.60
2022-11-22T13:01:48.448Z,10.70
2022-11-22T13:04:26.872Z,10.70
2022-11-22T13:06:59.140Z,10.60
2022-11-22T13:09:33.351Z,10.60
2022-11-22T13:12:07.063Z,10.50
2022-11-22T13:14:39.825Z,10.50
2022-11-22T13:17:11.656Z,10.40
2022-11-22T13:19:47.136Z,10.30
2022-11-22T13:22:22.574Z,10.30
2022-11-22T13:25:13.049Z,10.30
2022-11-22T13:27:45.025Z,10.40
2022-11-22T13:30:20.896Z,10.50
2022-11-22T13:32:53.836Z,10.50
2022-11-22T13:35:30.521Z,10.40
2022-11-22T13:38:02.523Z,10.30
2022-11-22T13:40:34.986Z,10.20
2022-11-22T13:43:50.554Z,10.10
2022-11-22T13:47:00.353Z,10.00
2022-11-22T13:49:49.432Z,9.90
2022-11-22T13:52:52.569Z,9.80
2022-11-22T13:55:38.758Z,9.90
2022-11-22T13:58:55.989Z,9.90
2022-11-22T14:02:00.396Z,9.90
2022-11-22T14:04:40.868Z,9.90
2022-11-22T14:07:35.495Z,9.80
2022-11-22T14:10:07.416Z,9.80
2022-11-22T14:13:21.388Z,9.70
2022-11-22T14:16:01.457Z,9.50
2022-11-22T14:18:53.705Z,9.50
2022-11-22T14:21:45.340Z,9.40
2022-11-22T14:24:30.641Z,9.30
2022-11-22T14:27:08.904Z,9.30
2022-11-22T14:30:03.811Z,9.30
2022-11-22T14:32:49.460Z,9.40
2022-11-22T14:35:29.602Z,9.40
2022-11-22T14:38:31.508Z,9.20
2022-11-22T14:41:43.166Z,9.10
2022-11-22T14:44:17.745Z,9.00
2022-11-22T14:46:54.662Z,8.90
2022-11-22T14:49:34.291Z,9.00
2022-11-22T14:52:03.671Z,8.90
2022-11-22T14:54:44.356Z,8.90
2022-11-22T14:57:20.442Z,8.90
2022-11-22T15:00:18.205Z,8.90
2022-11-22T15:03:17.769Z,8.80
2022-11-22T15:09:13.536Z,8.80
2022-11-22T15:09:40.674Z,8.80
2022-11-22T15:12:22.443Z,8.90
2022-11-22T15:57:27.340Z,8.30
2022-11-22T15:59:56.841Z,8.30
2022-11-22T16:02:29.995Z,8.30
2022-11-22T16:06:09.337Z,8.20
2022-11-22T16:07:52.189Z,8.20
2022-11-22T16:10:24.328Z,8.10
2022-11-22T16:12:53.789Z,8.10
2022-11-22T16:15:36.127Z,8.10
2022-11-22T16:18:17.764Z,8.10
2022-11-22T16:21:01.410Z,8.10
2022-11-22T16:23:30.666Z,8.10
2022-11-22T16:26:02.142Z,8.10
2022-11-22T16:28:36.230Z,8.10
2022-11-22T16:31:08.492Z,8.00
2022-11-22T16:33:38.065Z,8.10
2022-11-22T16:36:14.330Z,8.00
2022-11-22T16:38:42.866Z,8.00
2022-11-22T16:41:19.725Z,8.10
2022-11-22T16:43:49.226Z,8.10
2022-11-22T16:46:21.163Z,8.10
2022-11-22T16:48:50.937Z,8.10
2022-11-22T16:51:24.986Z,8.10
2022-11-22T16:53:54.224Z,8.10
2022-11-22T16:56:25.443Z,8.20
2022-11-22T16:58:56.836Z,8.20
2022-11-22T17:01:26.896Z,8.10
2022-11-22T17:03:57.996Z,8.20
2022-11-22T17:06:28.904Z,8.20
2022-11-22T17:08:59.345Z,8.20
2022-11-22T17:11:31.383Z,8.20
2022-11-22T17:13:59.917Z,8.20
2022-11-22T17:16:28.103Z,8.20
2022-11-22T17:18:58.243Z,8.20
2022-11-22T17:21:32.792Z,8.30
2022-11-22T17:24:06.453Z,8.30
2022-11-22T17:26:35.612Z,8.30
2022-11-22T17:29:03.748Z,8.30
2022-11-22T17:31:32.053Z,8.40
2022-11-22T17:34:01.601Z,8.40
2022-11-22T17:36:32.293Z,8.40
2022-11-22T17:39:02.348Z,8.40
2022-11-22T17:41:30.721Z,8.40
2022-11-22T17:43:59.140Z,8.40
2022-11-22T17:46:28.007Z,8.40
2022-11-22T17:48:58.749Z,8.40
2022-11-22T17:51:30.011Z,8.40
2022-11-22T17:53:59.364Z,8.40
2022-11-22T17:56:29.955Z,8.40
2022-11-22T17:58:58.191Z,8.40
2022-11-22T18:01:26.742Z,8.40
2022-11-22T18:03:55.015Z,8.40
2022-11-22T18:06:23.340Z,8.40
2022-11-22T18:08:52.892Z,8.40
2022-11-22T18:11:21.096Z,8.40
2022-11-22T18:13:49.312Z,8.40
2022-11-22T18:16:18.490Z,8.40
2022-11-22T18:19:02.581Z,8.40
2022-11-22T18:21:33.319Z,8.40
2022-11-22T18:24:03.060Z,8.40
2022-11-22T18:26:39.692Z,8.40
2022-11-22T18:29:41.273Z,8.40
2022-11-22T18:31:59.317Z,8.30
2022-11-22T18:34:28.496Z,8.40
2022-11-22T18:37:05.083Z,8.40
2022-11-22T18:39:38.265Z,8.30
2022-11-22T18:42:09.361Z,8.30
2022-11-22T18:44:37.509Z,8.40
2022-11-22T18:47:05.807Z,8.40
2022-11-22T18:49:34.178Z,8.40
2022-11-22T18:52:02.762Z,8.30
2022-11-22T18:54:31.229Z,8.30
2022-11-22T18:57:01.767Z,8.30
2022-11-22T18:59:31.318Z,8.30
2022-11-22T19:01:59.479Z,8.30
2022-11-22T19:04:27.794Z,8.30
2022-11-22T19:06:56.179Z,8.30
2022-11-22T19:09:24.509Z,8.20
2022-11-22T19:11:58.234Z,8.20
2022-11-22T19:14:29.516Z,8.20
2022-11-22T19:16:58.076Z,8.20
2022-11-22T19:19:26.284Z,8.30
2022-11-22T19:21:54.465Z,8.20
2022-11-22T19:24:22.612Z,8.20
2022-11-22T19:26:50.892Z,8.20
2022-11-22T19:29:19.439Z,8.20
2022-11-22T19:31:49.131Z,8.20
2022-11-22T19:34:18.064Z,8.20
2022-11-22T19:36:46.243Z,8.20
2022-11-22T19:39:16.736Z,8.10
2022-11-22T19:41:46.207Z,8.10
2022-11-22T19:44:14.398Z,8.10
2022-11-22T19:46:42.629Z,8.10
2022-11-22T19:49:12.471Z,8.10
2022-11-22T19:51:40.654Z,8.10
2022-11-22T19:54:09.120Z,8.10
2022-11-22T19:56:39.050Z,8.10
2022-11-22T19:59:10.357Z,8.10
2022-11-22T20:01:39.644Z,8.10
2022-11-22T20:04:08.323Z,8.10
2022-11-22T20:06:38.304Z,8.10
2022-11-22T20:09:09.741Z,8.10
2022-11-22T20:11:38.451Z,8.00
2022-11-22T20:14:07.555Z,8.10
2022-11-22T20:16:35.943Z,8.00
2022-11-22T20:19:07.482Z,8.00
2022-11-22T20:21:38.445Z,8.00
2022-11-22T20:24:07.597Z,8.00
2022-11-22T20:26:36.229Z,7.90
2022-11-22T20:29:09.115Z,7.90
2022-11-22T20:31:38.586Z,7.90
2022-11-22T20:34:06.724Z,7.90
2022-11-22T20:36:36.957Z,7.80
2022-11-22T20:39:10.482Z,7.80
2022-11-22T20:41:40.419Z,7.70
2022-11-22T20:44:12.694Z,7.70
2022-11-22T20:46:41.516Z,7.70
2022-11-22T20:49:09.684Z,7.70
2022-11-22T20:51:40.136Z,7.70
2022-11-22T20:54:08.796Z,7.70
2022-11-22T20:56:37.489Z,7.70
2022-11-22T20:59:06.013Z,7.60
2022-11-22T21:01:34.385Z,7.60
2022-11-22T21:04:03.000Z,7.60
2022-11-22T21:06:32.796Z,7.60
2022-11-22T21:09:02.342Z,7.50
2022-11-22T21:11:31.953Z,7.50
2022-11-22T21:14:00.477Z,7.50
2022-11-22T21:16:30.569Z,7.40
2022-11-22T21:19:01.170Z,7.30
2022-11-22T21:21:30.382Z,7.30
2022-11-22T21:24:00.807Z,7.30
2022-11-22T21:26:30.964Z,7.20
2022-11-22T21:29:00.323Z,7.10
2022-11-22T21:31:29.124Z,7.10
2022-11-22T21:33:57.426Z,7.00
2022-11-22T21:36:25.772Z,7.00
2022-11-22T21:38:53.914Z,6.90
2022-11-22T21:41:40.322Z,6.80
2022-11-22T21:44:11.549Z,6.70
2022-11-22T21:46:39.815Z,6.70
2022-11-22T21:49:08.167Z,6.60
2022-11-22T21:51:36.334Z,6.60
2022-11-22T21:54:05.219Z,6.60
2022-11-22T21:56:33.958Z,6.50
2022-11-22T21:59:02.228Z,6.50
2022-11-22T22:01:32.208Z,6.40
2022-11-22T22:04:00.395Z,6.40
2022-11-22T22:06:28.538Z,6.30
2022-11-22T22:08:56.721Z,6.20
2022-11-22T22:11:25.092Z,6.20
2022-11-22T22:13:55.018Z,6.10
2022-11-22T22:16:25.769Z,6.10
2022-11-22T22:18:55.412Z,6.00
2022-11-22T22:21:23.627Z,6.00
2022-11-22T22:23:51.804Z,5.90
2022-11-22T22:26:19.940Z,5.90
2022-11-22T22:28:48.223Z,5.90
2022-11-22T22:31:21.373Z,5.80
2022-11-22T22:33:51.220Z,5.80
2022-11-22T22:36:21.111Z,5.70
2022-11-22T22:38:49.608Z,5.70
2022-11-22T22:41:18.628Z,5.70
2022-11-22T22:43:48.865Z,5.60
2022-11-22T22:46:19.761Z,5.60
2022-11-22T22:48:48.954Z,5.60
2022-11-22T22:51:20.509Z,5.50
2022-11-22T22:53:49.277Z,5.50
2022-11-22T22:56:20.413Z,5.40
2022-11-22T22:58:49.490Z,5.40
2022-11-22T23:01:20.491Z,5.40
2022-11-22T23:03:49.698Z,5.40
2022-11-22T23:06:20.190Z,5.40
2022-11-22T23:08:50.402Z,5.40
2022-11-22T23:11:22.778Z,5.40
2022-11-22T23:13:55.027Z,5.40
2022-11-22T23:16:23.176Z,5.30
2022-11-22T23:18:51.288Z,5.30
2022-11-22T23:21:20.775Z,5.30
2022-11-22T23:23:48.888Z,5.20
2022-11-22T23:26:17.016Z,5.20
2022-11-22T23:28:45.166Z,5.10
2022-11-22T23:31:16.400Z,5.00
2022-11-22T23:33:45.110Z,5.00
2022-11-22T23:36:15.659Z,4.90
2022-11-22T23:38:45.914Z,4.90
2022-11-22T23:41:15.389Z,4.80
2022-11-22T23:43:44.340Z,4.70
2022-11-22T23:46:16.200Z,4.70
2022-11-22T23:48:45.028Z,4.60
2022-11-22T23:51:13.579Z,4.60
2022-11-22T23:53:42.108Z,4.50
2022-11-22T23:56:20.482Z,4.50
2022-11-22T23:58:49.875Z,4.40
